Terminal Aerodrome Forecast
Issued by NWS

Current Version | Previous Version | Text Only | Print | Product List | Glossary On
Versions: 1 2 3 4 5 6 7 8 9 10 11 12 13 14 15 16 17 18 19 20 21 22 23 24 25 26 27 28 29 30 31 32 33 34 35 36 37 38 39 40 41 42 43 44 45 46 47
000
FTUS42 KGSP 272341
TAFHKY
TAF
KHKY 272341Z 2800/2824 VRB03KT P6SM SCT110 BKN200
     FM280300 19004KT P6SM VCTS BKN090CB
      TEMPO 2804/2807 3SM -TSRA OVC040CB
     FM280900 19005KT 5SM BR OVC040
     FM281100 20004KT 5SM BR BKN008
     FM281400 22004KT P6SM BKN035
     FM281700 26008KT P6SM SCT050 PROB30 2817/2820 4SM -SHRA BKN050=

USA.gov is the U.S. government's official web portal to all federal, state and local government web resources and services.